Time;durP1;ratioP1;P1;durP2;ratioP2;P2;SDS_P1;SDS_P2;PMS_P1;PMS_P2;Temp;Humidity;BMP_temperature;BMP_pressure;BME280_temperature;BME280_humidity;BME280_pressure;Samples;Min_cycle;Max_cycle;Signal;HPM_P1;HPM_P2
2023/09/26 04:01:18;;;;;;;2.73;2.13;;;11.90;97.30;;;;;;5694548;23;20996;-88
2023/09/26 04:03:53;;;;;;;4.00;2.60;;;11.80;97.30;;;;;;5009738;28;20466;-88
2023/09/26 04:06:21;;;;;;;11.33;4.00;;;11.80;97.30;;;;;;5009299;28;20473;-89
2023/09/26 04:08:49;;;;;;;2.27;1.93;;;11.80;97.30;;;;;;5004146;28;20448;-88
2023/09/26 04:11:23;;;;;;;2.30;1.97;;;11.80;97.30;;;;;;5001043;28;20903;-89
2023/09/26 04:13:49;;;;;;;2.30;1.83;;;11.70;97.30;;;;;;5020034;28;20422;-89
2023/09/26 04:16:20;;;;;;;3.87;2.70;;;11.70;97.30;;;;;;5029882;28;20423;-89
2023/09/26 04:18:45;;;;;;;2.47;2.27;;;11.70;97.30;;;;;;5028503;28;20260;-89
2023/09/26 04:21:11;;;;;;;6.70;3.80;;;11.70;97.30;;;;;;5017299;28;20514;-88
2023/09/26 04:23:36;;;;;;;2.27;1.83;;;11.70;97.30;;;;;;5031215;28;20176;-87
2023/09/26 04:26:15;;;;;;;4.17;2.80;;;11.60;97.30;;;;;;5028939;28;20180;-88
2023/09/26 04:28:42;;;;;;;2.50;2.03;;;11.60;97.30;;;;;;5029979;28;20200;-89
2023/09/26 04:31:16;;;;;;;1.40;1.30;;;11.60;97.30;;;;;;5027980;28;20975;-88
2023/09/26 04:33:42;;;;;;;3.87;3.40;;;11.60;97.30;;;;;;5015099;28;20985;-90
2023/09/26 04:36:08;;;;;;;5.77;2.10;;;11.60;97.30;;;;;;5015790;28;20452;-90
2023/09/26 04:38:34;;;;;;;4.03;2.60;;;11.50;97.30;;;;;;5020659;28;20446;-90
2023/09/26 04:41:03;;;;;;;4.87;4.57;;;11.50;97.30;;;;;;5023674;28;21016;-86
2023/09/26 04:43:31;;;;;;;1.83;1.77;;;11.50;97.30;;;;;;5013256;28;20674;-88
2023/09/26 04:45:56;;;;;;;3.27;3.03;;;11.40;97.30;;;;;;5019357;28;20460;-86
2023/09/26 04:48:22;;;;;;;2.10;1.50;;;11.40;97.30;;;;;;5017034;28;20458;-88
2023/09/26 04:50:48;;;;;;;2.13;1.60;;;11.40;97.30;;;;;;5017885;28;20687;-88
2023/09/26 04:53:14;;;;;;;3.33;2.47;;;11.30;97.30;;;;;;5024313;28;20177;-87
2023/09/26 04:55:43;;;;;;;1.73;1.63;;;11.30;97.30;;;;;;5028309;28;20706;-89
2023/09/26 04:58:09;;;;;;;2.17;1.87;;;11.20;97.30;;;;;;5020703;28;20421;-88
2023/09/26 05:00:36;;;;;;;1.73;1.63;;;11.20;97.30;;;;;;5013734;28;21002;-89
2023/09/26 05:03:02;;;;;;;1.40;1.30;;;11.20;97.30;;;;;;5019908;28;20427;-89
2023/09/26 05:05:28;;;;;;;4.90;2.43;;;11.20;97.30;;;;;;5028356;28;20432;-89
2023/09/26 05:07:54;;;;;;;4.70;2.87;;;11.20;97.30;;;;;;5020166;28;20241;-90
2023/09/26 05:10:20;;;;;;;5.33;2.77;;;11.10;97.30;;;;;;5017024;28;20586;-87
2023/09/26 05:12:46;;;;;;;2.87;2.67;;;11.10;97.30;;;;;;5018496;28;20411;-88
2023/09/26 05:15:16;;;;;;;3.50;2.50;;;11.10;97.30;;;;;;5014638;28;20714;-89
2023/09/26 05:17:49;;;;;;;2.70;2.53;;;11.10;97.30;;;;;;5039355;23;20185;-69
2023/09/26 05:20:16;;;;;;;7.90;3.27;;;11.00;97.30;;;;;;4964130;28;20458;-68
2023/09/26 05:22:44;;;;;;;3.33;2.23;;;11.10;97.30;;;;;;4961061;28;20517;-68
2023/09/26 05:25:10;;;;;;;4.17;2.33;;;11.10;97.30;;;;;;4959598;28;20482;-67
2023/09/26 05:27:38;;;;;;;2.97;2.47;;;11.00;97.30;;;;;;4957511;28;20421;-68
2023/09/26 05:30:05;;;;;;;1.67;1.57;;;11.00;97.30;;;;;;4963831;28;20488;-68
2023/09/26 05:32:30;;;;;;;1.70;1.60;;;11.00;97.30;;;;;;4966320;28;20517;-68
2023/09/26 05:34:56;;;;;;;4.13;2.23;;;11.00;97.30;;;;;;4962250;28;20508;-68
2023/09/26 05:37:22;;;;;;;2.20;2.00;;;11.00;97.30;;;;;;4965402;28;20182;-67
2023/09/26 05:39:48;;;;;;;3.73;2.60;;;11.00;97.30;;;;;;4965737;28;20190;-67
2023/09/26 05:42:14;;;;;;;2.70;2.20;;;11.00;97.30;;;;;;4963375;28;20203;-68
2023/09/26 05:44:45;;;;;;;2.50;1.83;;;10.90;97.30;;;;;;4967830;28;20440;-68
2023/09/26 05:47:11;;;;;;;3.60;2.43;;;10.90;97.30;;;;;;4971132;28;20557;-68
2023/09/26 05:49:36;;;;;;;4.43;2.93;;;11.00;97.30;;;;;;4971264;28;20643;-68
2023/09/26 05:52:02;;;;;;;1.90;1.70;;;11.00;97.30;;;;;;4971897;28;20198;-68
2023/09/26 05:54:30;;;;;;;4.73;3.00;;;11.00;97.30;;;;;;4972463;28;20186;-68
2023/09/26 05:56:56;;;;;;;2.30;2.10;;;11.00;97.30;;;;;;4973206;28;20175;-68
2023/09/26 05:59:21;;;;;;;2.30;1.70;;;11.00;97.30;;;;;;4963610;28;20516;-68
2023/09/26 06:01:47;;;;;;;1.70;1.67;;;11.00;97.30;;;;;;4972970;28;20206;-67
2023/09/26 06:04:12;;;;;;;2.23;1.93;;;11.10;97.30;;;;;;4965477;28;20269;-68
2023/09/26 06:06:38;;;;;;;1.80;1.73;;;11.10;97.30;;;;;;4972045;28;20249;-68
2023/09/26 06:09:04;;;;;;;2.57;2.47;;;11.10;97.30;;;;;;4971631;28;20209;-68
2023/09/26 06:11:29;;;;;;;3.47;2.13;;;11.20;97.30;;;;;;4965005;28;20199;-68
2023/09/26 06:13:55;;;;;;;1.90;1.80;;;11.20;97.30;;;;;;4963649;28;20182;-67
2023/09/26 06:16:20;;;;;;;2.03;1.70;;;11.20;97.30;;;;;;4973937;28;20213;-68
2023/09/26 06:18:47;;;;;;;3.90;3.20;;;11.30;97.30;;;;;;4971620;28;20234;-68
2023/09/26 06:21:14;;;;;;;2.37;2.20;;;11.30;97.30;;;;;;4971943;28;20823;-68
2023/09/26 06:23:40;;;;;;;3.53;2.23;;;11.40;97.30;;;;;;4973034;28;20484;-68
2023/09/26 06:26:07;;;;;;;3.33;2.30;;;11.40;97.30;;;;;;4972708;28;20448;-68
2023/09/26 06:28:33;;;;;;;3.43;3.23;;;11.50;97.30;;;;;;4964818;28;20422;-67
2023/09/26 06:31:09;;;;;;;2.40;2.00;;;11.60;97.30;;;;;;4962507;28;20450;-68
2023/09/26 06:33:36;;;;;;;3.20;2.73;;;11.60;97.30;;;;;;4970696;28;20493;-67
2023/09/26 06:36:10;;;;;;;4.33;2.50;;;11.70;97.30;;;;;;4958043;28;20425;-68
2023/09/26 06:38:36;;;;;;;3.13;2.73;;;11.80;97.30;;;;;;4967391;28;20819;-68
2023/09/26 06:41:02;;;;;;;3.70;3.40;;;11.90;97.30;;;;;;4963839;28;20450;-68
2023/09/26 06:43:29;;;;;;;5.70;3.47;;;11.90;97.30;;;;;;4965114;28;20588;-68
2023/09/26 06:45:54;;;;;;;3.17;2.53;;;12.00;97.30;;;;;;4967113;28;20418;-68
2023/09/26 06:48:20;;;;;;;6.53;3.60;;;12.10;97.30;;;;;;4977963;28;20440;-68
2023/09/26 06:50:45;;;;;;;3.80;3.60;;;12.20;97.30;;;;;;4962492;28;20626;-68
2023/09/26 06:53:11;;;;;;;2.17;2.00;;;12.30;97.30;;;;;;4955266;28;20229;-68
2023/09/26 06:55:39;;;;;;;5.37;3.90;;;12.40;97.30;;;;;;4952421;28;20171;-67
2023/09/26 06:58:08;;;;;;;2.37;2.20;;;12.50;97.30;;;;;;4954016;28;20258;-68
2023/09/26 07:00:40;;;;;;;2.50;2.30;;;12.60;97.30;;;;;;4957042;28;20442;-68
2023/09/26 07:03:06;;;;;;;2.33;1.63;;;12.70;97.30;;;;;;4961472;28;20418;-68
2023/09/26 07:05:32;;;;;;;4.87;2.67;;;12.80;97.30;;;;;;4963779;28;20773;-68
2023/09/26 07:07:57;;;;;;;3.30;3.17;;;12.90;97.30;;;;;;4965609;28;20480;-68
2023/09/26 07:10:23;;;;;;;2.80;2.60;;;13.00;97.30;;;;;;4960345;28;20493;-68
2023/09/26 07:12:50;;;;;;;3.07;2.67;;;13.10;97.30;;;;;;4964352;28;20178;-68
2023/09/26 07:15:15;;;;;;;2.47;2.27;;;13.20;97.30;;;;;;4963473;28;20414;-68
2023/09/26 07:17:41;;;;;;;7.87;3.97;;;13.30;97.30;;;;;;4964775;28;20426;-68
2023/09/26 07:20:13;;;;;;;6.00;3.63;;;13.40;97.30;;;;;;4962282;28;20186;-68
2023/09/26 07:22:42;;;;;;;2.90;2.67;;;13.50;97.30;;;;;;4980613;28;20337;-67
2023/09/26 07:25:10;;;;;;;3.97;3.77;;;13.60;97.30;;;;;;4968770;28;20946;-68
2023/09/26 07:27:36;;;;;;;3.50;3.10;;;13.70;97.30;;;;;;4971161;28;20431;-68
2023/09/26 07:30:01;;;;;;;2.87;2.73;;;13.80;97.30;;;;;;4964232;28;20465;-68
2023/09/26 07:32:27;;;;;;;6.70;4.47;;;13.90;97.30;;;;;;4968265;28;20725;-68
2023/09/26 07:34:53;;;;;;;3.53;3.33;;;14.00;97.30;;;;;;4968108;28;20592;-68
2023/09/26 07:37:18;;;;;;;4.93;4.20;;;14.10;97.30;;;;;;4964738;28;20732;-68
2023/09/26 07:39:48;;;;;;;3.10;2.73;;;14.20;97.30;;;;;;4962605;28;20179;-68
2023/09/26 07:42:14;;;;;;;6.13;4.20;;;14.30;97.30;;;;;;4978491;28;20290;-68
2023/09/26 07:44:40;;;;;;;5.53;3.43;;;14.40;97.30;;;;;;4963921;28;20505;-68
2023/09/26 07:47:05;;;;;;;4.30;3.03;;;14.50;97.30;;;;;;4967706;28;20194;-68
2023/09/26 07:49:31;;;;;;;2.60;2.40;;;14.50;97.30;;;;;;4962419;28;20250;-68
2023/09/26 07:51:57;;;;;;;4.60;3.27;;;14.60;97.30;;;;;;4956754;28;20750;-68
2023/09/26 07:54:22;;;;;;;9.13;2.87;;;14.70;97.30;;;;;;4960942;28;20179;-68
2023/09/26 07:56:48;;;;;;;6.60;2.77;;;14.80;97.30;;;;;;4967346;28;20246;-68
2023/09/26 07:59:13;;;;;;;4.23;3.33;;;14.80;97.30;;;;;;4964767;28;20213;-68
2023/09/26 08:01:39;;;;;;;3.67;2.90;;;14.90;97.30;;;;;;4966277;28;20335;-68
2023/09/26 08:04:04;;;;;;;8.07;2.23;;;15.00;97.30;;;;;;4959712;28;20218;-68
2023/09/26 08:06:31;;;;;;;4.20;3.60;;;15.10;97.30;;;;;;4961939;28;20238;-68
2023/09/26 08:08:57;;;;;;;6.40;3.87;;;15.20;97.30;;;;;;4965095;28;20230;-68
2023/09/26 08:11:27;;;;;;;9.33;3.63;;;15.30;97.30;;;;;;4967548;28;20445;-68
2023/09/26 08:13:53;;;;;;;3.77;2.50;;;15.40;97.30;;;;;;4970163;28;20508;-68
2023/09/26 08:16:19;;;;;;;2.97;2.77;;;15.50;97.30;;;;;;4962990;28;20515;-68
2023/09/26 08:18:44;;;;;;;6.27;3.23;;;15.60;97.30;;;;;;4963112;28;20218;-68
2023/09/26 08:21:10;;;;;;;6.53;3.83;;;15.60;97.30;;;;;;4969430;28;20206;-68
2023/09/26 08:23:35;;;;;;;3.63;2.70;;;15.70;97.30;;;;;;4969729;28;20679;-68
2023/09/26 08:26:03;;;;;;;3.10;2.90;;;15.80;97.30;;;;;;4971189;28;20667;-67
2023/09/26 08:28:29;;;;;;;5.63;3.27;;;15.90;97.30;;;;;;4960535;28;20278;-68
2023/09/26 08:30:56;;;;;;;4.30;2.77;;;15.90;97.30;;;;;;4953723;28;20457;-68
2023/09/26 08:33:23;;;;;;;1.83;1.73;;;16.10;97.30;;;;;;4970580;28;20468;-68
2023/09/26 08:35:49;;;;;;;9.37;3.57;;;16.10;97.30;;;;;;4969898;28;20414;-68
2023/09/26 08:38:15;;;;;;;1.87;1.47;;;16.30;97.30;;;;;;4963281;28;20418;-68
2023/09/26 08:40:43;;;;;;;2.47;2.33;;;16.30;97.30;;;;;;4967954;28;20446;-68
2023/09/26 08:43:11;;;;;;;3.90;2.00;;;16.50;97.30;;;;;;4968166;28;20182;-68
2023/09/26 08:45:38;;;;;;;8.10;2.53;;;16.60;97.30;;;;;;4966317;28;20644;-68
2023/09/26 08:48:03;;;;;;;2.97;1.90;;;16.70;97.30;;;;;;4967801;28;20845;-66
2023/09/26 08:50:29;;;;;;;1.60;1.50;;;16.80;97.30;;;;;;4951988;28;20509;-66
2023/09/26 08:52:58;;;;;;;3.13;2.20;;;16.90;97.30;;;;;;4962364;28;20182;-65
2023/09/26 08:55:25;;;;;;;2.60;1.93;;;17.00;97.30;;;;;;4961087;28;20219;-68
2023/09/26 08:57:51;;;;;;;4.63;2.30;;;17.10;97.30;;;;;;4964529;28;20516;-68
2023/09/26 09:00:19;;;;;;;2.83;2.30;;;17.20;97.30;;;;;;4965942;28;20512;-66
2023/09/26 09:02:44;;;;;;;2.20;2.00;;;17.30;97.30;;;;;;4955221;28;20273;-66
2023/09/26 09:05:10;;;;;;;3.23;2.20;;;17.30;97.30;;;;;;4968651;28;20435;-66
2023/09/26 09:07:40;;;;;;;5.97;3.20;;;17.40;97.30;;;;;;4959092;28;20179;-68
2023/09/26 09:10:07;;;;;;;4.73;2.47;;;17.50;97.30;;;;;;4963944;28;20466;-68
2023/09/26 09:12:37;;;;;;;3.07;2.50;;;17.60;97.30;;;;;;4968383;28;20841;-66
2023/09/26 09:15:17;;;;;;;2.40;1.90;;;17.70;97.30;;;;;;4969433;28;20813;-66
2023/09/26 09:17:43;;;;;;;5.13;2.37;;;17.90;97.30;;;;;;4970547;28;21095;-66
2023/09/26 09:20:16;;;;;;;1.73;1.63;;;18.10;97.30;;;;;;4972160;28;21164;-68
2023/09/26 09:22:46;;;;;;;3.10;2.43;;;18.20;97.30;;;;;;4969341;28;20453;-68
2023/09/26 09:25:12;;;;;;;5.10;2.43;;;18.30;97.30;;;;;;4955757;28;20481;-66
2023/09/26 09:27:40;;;;;;;5.07;3.23;;;18.50;97.30;;;;;;4968315;28;20433;-66
2023/09/26 09:30:19;;;;;;;2.20;1.67;;;18.50;97.30;;;;;;4968379;28;20824;-66
2023/09/26 09:32:45;;;;;;;3.10;2.50;;;18.60;97.30;;;;;;4978756;28;20945;-66
2023/09/26 09:35:14;;;;;;;10.47;2.30;;;18.70;97.30;;;;;;4973073;28;20445;-66
2023/09/26 09:37:47;;;;;;;1.90;1.83;;;18.80;97.30;;;;;;4964066;28;20425;-66
2023/09/26 09:40:20;;;;;;;4.63;2.50;;;18.80;97.30;;;;;;4971423;28;20433;-66
2023/09/26 09:42:50;;;;;;;4.57;2.23;;;18.90;97.30;;;;;;4966536;28;20426;-66
2023/09/26 09:45:19;;;;;;;3.27;2.80;;;18.90;97.30;;;;;;4969443;28;20499;-68
2023/09/26 09:47:46;;;;;;;7.10;3.40;;;19.00;97.30;;;;;;4970145;28;20499;-68
2023/09/26 09:50:13;;;;;;;4.00;2.77;;;19.10;97.30;;;;;;4963194;28;20465;-68
2023/09/26 09:52:43;;;;;;;1.40;1.30;;;19.10;97.30;;;;;;4968101;28;20425;-68
2023/09/26 09:55:13;;;;;;;5.63;2.27;;;19.20;97.30;;;;;;4967426;28;20497;-68
2023/09/26 09:57:45;;;;;;;3.10;1.83;;;19.30;97.30;;;;;;4963001;28;20426;-68
2023/09/26 10:00:13;;;;;;;2.63;1.87;;;19.40;97.30;;;;;;4963892;28;20454;-68
2023/09/26 10:02:39;;;;;;;2.93;2.00;;;19.60;97.30;;;;;;4972115;28;20425;-68
2023/09/26 10:05:12;;;;;;;3.63;2.13;;;19.70;97.30;;;;;;4970873;28;20847;-68
2023/09/26 10:07:45;;;;;;;4.87;3.53;;;19.80;97.30;;;;;;4970222;28;20525;-68
2023/09/26 10:10:12;;;;;;;3.17;2.33;;;20.00;97.30;;;;;;4966706;28;20484;-68
2023/09/26 10:12:39;;;;;;;3.43;2.27;;;20.10;97.30;;;;;;4970932;28;20426;-68
2023/09/26 10:15:11;;;;;;;2.00;1.90;;;20.20;97.30;;;;;;4963236;28;20808;-68
2023/09/26 10:17:41;;;;;;;5.97;2.70;;;20.30;97.30;;;;;;4954851;28;20434;-68
2023/09/26 10:20:11;;;;;;;2.30;1.40;;;20.30;97.30;;;;;;4972220;28;20481;-68
2023/09/26 10:22:41;;;;;;;3.33;2.30;;;20.40;97.30;;;;;;4969036;28;20565;-68
2023/09/26 10:25:07;;;;;;;6.77;2.30;;;20.40;97.30;;;;;;4956642;28;20440;-68
2023/09/26 10:27:33;;;;;;;6.53;2.90;;;20.50;97.30;;;;;;4971112;28;20433;-67
2023/09/26 10:30:01;;;;;;;2.33;2.13;;;20.60;97.30;;;;;;4965638;28;20462;-68
2023/09/26 10:32:32;;;;;;;1.70;1.60;;;20.80;97.30;;;;;;4963633;28;20249;-68
2023/09/26 10:34:58;;;;;;;1.93;1.83;;;21.00;97.30;;;;;;4959210;28;20945;-68
2023/09/26 10:37:26;;;;;;;4.57;2.10;;;21.10;97.30;;;;;;4959793;28;20407;-68
2023/09/26 10:39:52;;;;;;;3.70;2.33;;;21.20;97.30;;;;;;4962356;28;20441;-68
2023/09/26 10:42:21;;;;;;;2.43;1.70;;;21.40;97.30;;;;;;4962535;28;20444;-68
2023/09/26 10:44:50;;;;;;;4.70;3.70;;;21.50;97.30;;;;;;4965649;28;20192;-68
2023/09/26 10:47:17;;;;;;;3.93;3.03;;;21.60;97.30;;;;;;4964733;28;20430;-68
2023/09/26 10:49:45;;;;;;;5.47;3.13;;;21.80;97.30;;;;;;4969679;28;20468;-68
2023/09/26 10:52:12;;;;;;;6.13;2.90;;;21.90;97.30;;;;;;4961592;28;20539;-68
2023/09/26 10:54:41;;;;;;;3.70;2.50;;;22.10;97.30;;;;;;4964471;28;20925;-68
2023/09/26 10:57:20;;;;;;;3.70;2.73;;;22.20;97.30;;;;;;4967870;28;20914;-68
2023/09/26 10:59:46;;;;;;;4.90;3.37;;;22.40;97.30;;;;;;4968609;28;20934;-68
2023/09/26 11:02:11;;;;;;;6.43;2.50;;;22.50;96.20;;;;;;4965547;28;20461;-68
2023/09/26 11:04:37;;;;;;;7.37;2.70;;;22.60;95.80;;;;;;4962783;28;22309;-68
2023/09/26 11:07:03;;;;;;;4.17;2.47;;;22.70;95.50;;;;;;4963246;28;20191;-68
2023/09/26 11:09:29;;;;;;;3.93;2.40;;;22.80;94.50;;;;;;4971147;28;20740;-69
2023/09/26 11:11:56;;;;;;;6.30;3.30;;;22.80;94.70;;;;;;4965790;28;20441;-69
2023/09/26 11:14:26;;;;;;;7.97;2.60;;;22.80;93.90;;;;;;4968888;28;20423;-68
2023/09/26 11:16:52;;;;;;;3.03;2.83;;;22.80;94.20;;;;;;4968869;28;20993;-68
2023/09/26 11:19:21;;;;;;;2.60;2.40;;;22.80;95.20;;;;;;4971201;28;20508;-68
2023/09/26 11:21:48;;;;;;;5.33;3.03;;;22.90;95.30;;;;;;4967782;28;20464;-68
2023/09/26 11:24:25;;;;;;;4.40;3.57;;;23.10;95.60;;;;;;4971663;28;20446;-66
2023/09/26 11:26:51;;;;;;;3.57;2.23;;;23.20;96.00;;;;;;4960277;28;20441;-66
2023/09/26 11:29:20;;;;;;;9.83;3.40;;;23.40;95.30;;;;;;4978287;28;20470;-65
2023/09/26 11:31:47;;;;;;;3.70;2.50;;;23.50;95.00;;;;;;4970452;28;20437;-66
2023/09/26 11:34:17;;;;;;;5.47;3.47;;;23.60;94.20;;;;;;4966163;28;20790;-66
2023/09/26 11:36:42;;;;;;;3.90;2.60;;;23.50;93.40;;;;;;4961948;28;20947;-65
2023/09/26 11:39:23;;;;;;;3.67;3.10;;;23.60;93.70;;;;;;4967095;28;20566;-66
2023/09/26 11:42:11;;;;;;;18.23;3.43;;;23.60;93.70;;;;;;4958609;28;20227;-66
2023/09/26 11:44:37;;;;;;;3.77;3.57;;;23.60;93.00;;;;;;4960734;28;20426;-66
2023/09/26 11:47:04;;;;;;;5.70;2.13;;;23.60;92.20;;;;;;4958889;28;20522;-65
2023/09/26 11:49:30;;;;;;;1.87;1.67;;;23.60;93.50;;;;;;4955069;28;20214;-65
2023/09/26 11:51:56;;;;;;;4.80;2.30;;;23.70;93.00;;;;;;4960661;28;20454;-65
2023/09/26 11:54:22;;;;;;;3.43;2.53;;;23.80;92.50;;;;;;4959815;28;20182;-65
2023/09/26 11:56:48;;;;;;;4.50;2.67;;;23.80;92.40;;;;;;4966340;28;20670;-66
2023/09/26 11:59:15;;;;;;;2.67;2.07;;;23.90;93.50;;;;;;4959130;28;20477;-66
2023/09/26 12:01:43;;;;;;;5.80;3.20;;;24.10;93.20;;;;;;4965262;28;20483;-66
2023/09/26 12:04:13;;;;;;;4.33;2.03;;;24.20;92.10;;;;;;4959662;28;20805;-65
2023/09/26 12:06:40;;;;;;;1.80;1.70;;;24.20;91.90;;;;;;4957982;28;20958;-66
2023/09/26 12:09:19;;;;;;;3.13;1.90;;;24.30;92.50;;;;;;4962324;28;20477;-65
2023/09/26 12:11:46;;;;;;;2.10;1.90;;;24.40;92.00;;;;;;4969190;28;20445;-65
2023/09/26 12:14:11;;;;;;;2.60;1.87;;;24.60;92.10;;;;;;4962234;28;20410;-65
2023/09/26 12:16:37;;;;;;;3.70;2.33;;;24.70;91.90;;;;;;4962001;28;20496;-65
2023/09/26 12:19:02;;;;;;;2.53;2.30;;;24.90;91.40;;;;;;4966600;28;20304;-66
2023/09/26 12:21:28;;;;;;;2.80;1.67;;;25.00;90.90;;;;;;4961959;28;20218;-66
2023/09/26 12:23:53;;;;;;;3.43;2.23;;;25.10;90.20;;;;;;4964267;28;20190;-65
2023/09/26 12:26:19;;;;;;;5.27;2.20;;;25.10;89.50;;;;;;4967119;28;20269;-65
2023/09/26 12:28:44;;;;;;;2.10;1.67;;;25.10;88.90;;;;;;4961060;28;20190;-66
2023/09/26 12:31:10;;;;;;;7.10;3.30;;;25.10;90.50;;;;;;4958760;28;20234;-66
2023/09/26 12:33:36;;;;;;;5.00;2.27;;;25.20;91.10;;;;;;5008682;23;20324;-86
2023/09/26 12:36:01;;;;;;;2.77;2.57;;;25.30;90.80;;;;;;5009227;28;20180;-86
2023/09/26 12:38:27;;;;;;;1.10;1.00;;;25.40;89.90;;;;;;5009198;28;20184;-86
2023/09/26 12:40:52;;;;;;;10.03;2.57;;;25.40;89.10;;;;;;5006184;28;20187;-85
2023/09/26 12:43:18;;;;;;;2.70;2.07;;;25.50;90.10;;;;;;5020784;28;20208;-87
2023/09/26 12:45:44;;;;;;;3.50;2.70;;;25.60;90.60;;;;;;5022954;28;20187;-86
2023/09/26 12:48:09;;;;;;;5.90;2.60;;;25.80;89.90;;;;;;5035984;28;20184;-86
2023/09/26 12:50:36;;;;;;;3.40;2.40;;;25.90;89.30;;;;;;5027431;28;20204;-86
2023/09/26 12:53:01;;;;;;;3.47;2.00;;;26.10;89.50;;;;;;5026520;28;20203;-86
2023/09/26 12:55:34;;;;;;;3.90;2.43;;;26.10;89.00;;;;;;5032973;28;20419;-86
2023/09/26 12:58:00;;;;;;;2.20;1.80;;;26.20;89.10;;;;;;5029346;28;20187;-87
2023/09/26 13:00:26;;;;;;;3.83;2.50;;;26.30;88.80;;;;;;5026457;28;20432;-87
2023/09/26 13:02:51;;;;;;;2.77;1.70;;;26.30;87.10;;;;;;5025642;28;20230;-87
2023/09/26 13:05:18;;;;;;;1.47;1.43;;;26.10;86.30;;;;;;5031148;28;20310;-87
2023/09/26 13:07:44;;;;;;;2.90;2.37;;;26.00;87.10;;;;;;5032213;28;20560;-86
2023/09/26 13:10:12;;;;;;;3.67;2.97;;;26.00;87.10;;;;;;5029768;28;20463;-87
2023/09/26 13:12:40;;;;;;;4.13;3.30;;;26.00;88.00;;;;;;5020265;28;20282;-86
2023/09/26 13:15:09;;;;;;;2.27;2.07;;;26.10;88.50;;;;;;5026682;28;20411;-87
2023/09/26 13:17:36;;;;;;;3.50;2.40;;;26.30;88.60;;;;;;5032953;28;20407;-86
2023/09/26 13:20:05;;;;;;;3.80;3.20;;;26.40;88.50;;;;;;5024996;28;20532;-86
2023/09/26 13:22:31;;;;;;;4.00;2.50;;;26.50;88.20;;;;;;5026636;28;20443;-87
2023/09/26 13:24:59;;;;;;;2.37;1.93;;;26.60;86.80;;;;;;5027600;28;20797;-87
2023/09/26 13:27:24;;;;;;;2.47;1.70;;;26.60;87.70;;;;;;5032271;28;20423;-86
2023/09/26 13:29:50;;;;;;;2.60;2.10;;;26.70;87.90;;;;;;5026197;28;20447;-86
2023/09/26 13:32:15;;;;;;;2.67;1.87;;;26.80;87.80;;;;;;5034086;28;20172;-86
2023/09/26 13:34:43;;;;;;;2.13;1.93;;;26.80;87.60;;;;;;5028073;28;20207;-86
2023/09/26 13:37:08;;;;;;;7.10;4.60;;;26.80;87.50;;;;;;5031530;28;20196;-86
2023/09/26 13:39:34;;;;;;;4.00;2.07;;;26.80;87.20;;;;;;5029968;28;20453;-86
2023/09/26 13:42:02;;;;;;;4.57;2.87;;;26.80;87.40;;;;;;5024524;28;20646;-86
2023/09/26 13:44:27;;;;;;;3.00;2.73;;;26.80;87.30;;;;;;5030980;28;20269;-86
2023/09/26 13:46:53;;;;;;;2.20;1.90;;;26.90;87.20;;;;;;5031200;28;20957;-86
2023/09/26 13:49:18;;;;;;;3.47;2.20;;;26.90;87.00;;;;;;5029667;28;20213;-85
2023/09/26 13:51:44;;;;;;;2.50;2.37;;;26.90;87.00;;;;;;5033406;28;20177;-87
2023/09/26 13:54:12;;;;;;;3.67;2.00;;;26.90;87.00;;;;;;5034564;28;20690;-87
2023/09/26 13:56:40;;;;;;;4.43;3.07;;;26.90;86.60;;;;;;5033617;28;20251;-88
2023/09/26 13:59:14;;;;;;;2.87;2.17;;;26.90;86.60;;;;;;5025670;28;20428;-88
2023/09/26 14:01:42;;;;;;;20.20;2.47;;;26.80;85.80;;;;;;5024585;28;20422;-91
2023/09/26 14:04:11;;;;;;;2.40;1.80;;;26.80;86.60;;;;;;5024959;28;20440;-89
2023/09/26 14:06:36;;;;;;;3.20;2.20;;;26.80;86.90;;;;;;5029273;28;20808;-90
2023/09/26 14:09:03;;;;;;;4.23;2.53;;;26.80;86.50;;;;;;5021225;28;20443;-90
2023/09/26 14:11:29;;;;;;;8.63;3.07;;;26.80;87.20;;;;;;5025775;28;20260;-89
2023/09/26 14:13:55;;;;;;;7.37;2.27;;;26.90;87.00;;;;;;5024589;28;20523;-89
2023/09/26 14:16:21;;;;;;;2.53;1.97;;;26.90;87.10;;;;;;5023757;28;20183;-89
2023/09/26 14:18:49;;;;;;;2.20;2.00;;;27.00;86.50;;;;;;5028281;28;20231;-91
2023/09/26 14:21:15;;;;;;;3.23;2.27;;;27.00;86.70;;;;;;5023438;28;20741;-87
2023/09/26 14:23:43;;;;;;;10.57;3.43;;;27.00;86.30;;;;;;5025076;28;20444;-89
2023/09/26 14:26:09;;;;;;;2.93;2.20;;;27.00;86.20;;;;;;5025018;28;20236;-89
2023/09/26 14:28:35;;;;;;;5.03;2.10;;;27.00;85.80;;;;;;5025484;28;21065;-91
2023/09/26 14:31:01;;;;;;;3.57;2.40;;;27.00;86.00;;;;;;5016625;28;20546;-89
2023/09/26 14:33:26;;;;;;;3.80;2.33;;;27.00;86.20;;;;;;5019832;28;20221;-85
2023/09/26 14:35:52;;;;;;;3.40;2.07;;;27.10;85.80;;;;;;5024256;28;20181;-87
2023/09/26 14:38:25;;;;;;;5.23;1.87;;;27.10;85.00;;;;;;5021439;28;20207;-87
2023/09/26 14:40:53;;;;;;;1.77;1.50;;;27.10;85.70;;;;;;5021383;28;20181;-86
2023/09/26 14:43:22;;;;;;;1.60;1.37;;;27.10;85.60;;;;;;5022867;28;20530;-86
2023/09/26 14:45:55;;;;;;;2.37;1.67;;;27.20;85.80;;;;;;5020093;28;20903;-87
2023/09/26 14:48:21;;;;;;;3.80;1.63;;;27.20;85.70;;;;;;5026067;28;20495;-89
2023/09/26 14:50:56;;;;;;;3.80;2.70;;;27.30;84.90;;;;;;5025146;28;20549;-89
2023/09/26 14:53:22;;;;;;;3.17;1.40;;;27.20;84.60;;;;;;5021889;28;20224;-88
2023/09/26 14:55:48;;;;;;;3.60;2.17;;;27.10;83.80;;;;;;5020098;28;20443;-89
2023/09/26 14:58:13;;;;;;;2.03;1.77;;;27.00;84.10;;;;;;5018609;28;20412;-88
2023/09/26 15:00:43;;;;;;;3.80;1.93;;;26.90;85.40;;;;;;5029290;28;20437;-87
2023/09/26 15:03:10;;;;;;;7.93;2.70;;;27.00;85.50;;;;;;5025346;28;20228;-88
2023/09/26 15:05:43;;;;;;;3.90;2.13;;;27.10;85.40;;;;;;5020941;28;20465;-89
2023/09/26 15:08:11;;;;;;;5.10;2.73;;;27.20;85.60;;;;;;5020019;28;20407;-88
2023/09/26 15:10:37;;;;;;;1.40;1.30;;;27.30;86.00;;;;;;5022284;28;20498;-88
2023/09/26 15:13:03;;;;;;;2.87;2.23;;;27.40;85.90;;;;;;5021327;28;20428;-89
2023/09/26 15:15:29;;;;;;;1.47;1.37;;;27.50;86.10;;;;;;5027875;28;20183;-88
2023/09/26 15:17:55;;;;;;;3.57;2.27;;;27.50;85.80;;;;;;5023809;28;20187;-88
2023/09/26 15:20:21;;;;;;;2.73;1.47;;;27.50;85.20;;;;;;5024895;28;20412;-88
2023/09/26 15:22:49;;;;;;;4.93;2.60;;;27.50;85.30;;;;;;5021846;28;20808;-88
2023/09/26 15:25:15;;;;;;;3.23;1.93;;;27.60;85.50;;;;;;5025478;28;20422;-88
2023/09/26 15:27:41;;;;;;;5.23;2.37;;;27.60;85.40;;;;;;5028408;28;20443;-88
2023/09/26 15:30:07;;;;;;;4.63;2.60;;;27.60;85.40;;;;;;5026023;28;20451;-90
2023/09/26 15:32:33;;;;;;;2.60;2.40;;;27.60;85.40;;;;;;5026271;28;20251;-85
2023/09/26 15:34:58;;;;;;;1.40;1.20;;;27.60;85.20;;;;;;5023438;28;20423;-87
2023/09/26 15:37:24;;;;;;;2.10;1.77;;;27.50;85.10;;;;;;5019359;28;20173;-86
2023/09/26 15:39:53;;;;;;;4.73;2.60;;;27.50;84.90;;;;;;5030307;28;20187;-85
2023/09/26 15:42:18;;;;;;;2.90;2.13;;;27.50;85.10;;;;;;5024763;28;20187;-86
2023/09/26 15:44:45;;;;;;;1.83;1.77;;;27.50;85.20;;;;;;5026944;28;20434;-86
2023/09/26 15:47:11;;;;;;;2.43;2.07;;;27.50;85.40;;;;;;5023835;28;20177;-87
2023/09/26 15:49:40;;;;;;;2.47;2.33;;;27.40;85.50;;;;;;5017983;28;20950;-85
2023/09/26 15:52:05;;;;;;;2.33;2.00;;;27.40;85.60;;;;;;5018236;28;20793;-89
2023/09/26 15:54:31;;;;;;;1.47;1.37;;;27.40;85.60;;;;;;5018043;28;20432;-88
2023/09/26 15:57:01;;;;;;;2.33;1.73;;;27.30;85.60;;;;;;5018038;28;20188;-87
2023/09/26 15:59:29;;;;;;;1.97;1.87;;;27.20;85.80;;;;;;5020928;28;20188;-87
2023/09/26 16:01:55;;;;;;;1.97;1.50;;;26.90;86.40;;;;;;5027607;28;20434;-87
2023/09/26 16:04:22;;;;;;;2.17;1.67;;;26.70;87.10;;;;;;5023151;28;20443;-84
2023/09/26 16:06:50;;;;;;;2.97;2.80;;;26.40;87.10;;;;;;5020906;28;20662;-87
2023/09/26 16:09:16;;;;;;;3.40;2.63;;;26.20;88.40;;;;;;5020471;28;20475;-89
2023/09/26 16:11:42;;;;;;;1.57;1.50;;;25.90;89.20;;;;;;5022872;28;20419;-87
2023/09/26 16:14:08;;;;;;;1.80;1.63;;;25.70;90.10;;;;;;5028278;28;20639;-89
2023/09/26 16:16:33;;;;;;;1.33;1.23;;;25.50;90.70;;;;;;5027149;28;20187;-88
2023/09/26 16:19:01;;;;;;;3.13;2.50;;;25.30;91.40;;;;;;5023506;28;20506;-89
2023/09/26 16:21:34;;;;;;;1.77;1.70;;;25.10;91.80;;;;;;5025592;28;20177;-88
2023/09/26 16:24:01;;;;;;;2.03;1.80;;;24.90;92.50;;;;;;5021941;28;20439;-88
2023/09/26 16:26:27;;;;;;;3.93;2.47;;;24.70;93.10;;;;;;5027018;28;20412;-89
2023/09/26 16:28:53;;;;;;;1.93;1.83;;;24.60;93.60;;;;;;5027902;28;20407;-89
2023/09/26 16:31:18;;;;;;;2.57;1.63;;;24.40;94.10;;;;;;5020120;28;20191;-88
2023/09/26 16:33:44;;;;;;;1.83;1.67;;;24.30;94.60;;;;;;5015039;28;20755;-88
2023/09/26 16:36:14;;;;;;;2.30;1.57;;;24.20;94.70;;;;;;5019726;28;20300;-88
2023/09/26 16:38:40;;;;;;;1.67;1.57;;;24.00;95.00;;;;;;5021106;28;20232;-90
2023/09/26 16:41:08;;;;;;;2.13;1.73;;;23.90;95.30;;;;;;5020429;28;20426;-89
2023/09/26 16:43:33;;;;;;;1.73;1.50;;;23.70;95.40;;;;;;5022518;28;20204;-89
2023/09/26 16:46:01;;;;;;;1.47;1.47;;;23.60;95.60;;;;;;5014371;28;20421;-91